Time;durP1;ratioP1;P1;durP2;ratioP2;P2;SDS_P1;SDS_P2;PMS_P1;PMS_P2;Temp;Humidity;BMP_temperature;BMP_pressure;BME280_temperature;BME280_humidity;BME280_pressure;Samples;Min_cycle;Max_cycle;Signal;HPM_P1;HPM_P2
2021/10/31 00:00:05;;;;;;;;;;;16.30;99.90;16.50;98999.00;;;;337363;28;86934;-89
2021/10/31 00:00:16;;;;;;;;;;;16.30;99.90;16.40;99003.00;;;;336200;28;86307;-90
2021/10/31 00:00:28;;;;;;;;;;;16.20;99.90;16.40;98991.00;;;;336102;28;87017;-89
2021/10/31 00:00:40;;;;;;;;;;;16.20;99.90;16.50;98993.00;;;;337751;28;88482;-89
2021/10/31 00:00:52;;;;;;;;;;;16.30;99.90;16.50;98997.00;;;;333646;29;86242;-89
2021/10/31 00:01:04;;;;;;;;;;;16.20;99.90;16.50;98996.00;;;;339026;28;88343;-88
2021/10/31 00:01:18;;;;;;;;;;;16.20;99.90;16.50;99000.00;;;;337595;28;86865;-88
2021/10/31 00:01:30;;;;;;;;;;;16.20;99.90;16.40;98996.00;;;;336457;28;88127;-89
2021/10/31 00:01:42;;;;;;;;;;;16.20;99.90;16.50;98994.00;;;;338563;28;87421;-88
2021/10/31 00:01:54;;;;;;;;;;;16.20;99.90;16.40;98997.00;;;;335489;28;86516;-89
2021/10/31 00:02:05;;;;;;;;;;;16.20;99.90;16.50;98996.00;;;;338897;28;86694;-88
2021/10/31 00:02:18;;;;;;;;;;;16.20;99.90;16.50;98990.00;;;;339049;28;88902;-88
2021/10/31 00:02:30;;;;;;;;;;;16.20;99.90;16.50;98990.00;;;;336193;28;86910;-88
2021/10/31 00:02:42;;;;;;;;;;;16.20;99.90;16.40;98994.00;;;;337838;28;87901;-88
2021/10/31 00:02:53;;;;;;;;;;;16.20;99.90;16.40;98990.00;;;;339828;28;88365;-89
2021/10/31 00:03:05;;;;;;;;;;;16.20;99.90;16.40;99000.00;;;;337680;28;88548;-89
2021/10/31 00:03:18;;;;;;;;;;;16.20;99.90;16.40;98997.00;;;;336203;28;86936;-88
2021/10/31 00:03:30;;;;;;;;;;;16.20;99.90;16.50;98992.00;;;;336413;28;87977;-88
2021/10/31 00:03:42;;;;;;;;;;;16.20;99.90;16.30;98997.00;;;;336188;28;86858;-88
2021/10/31 00:03:55;;;;;;;;;;;16.20;99.90;16.30;98995.00;;;;333885;29;85944;-88
2021/10/31 00:04:07;;;;;;;;;;;16.20;99.90;16.40;99001.00;;;;337439;28;86946;-88
2021/10/31 00:04:18;;;;;;;;;;;16.20;99.90;16.40;99002.00;;;;336389;28;88915;-89
2021/10/31 00:04:30;;;;;;;;;;;16.20;99.90;16.40;98999.00;;;;336013;28;87073;-89
2021/10/31 00:04:42;;;;;;;;;;;16.20;99.90;16.40;99001.00;;;;334906;28;91357;-89
2021/10/31 00:04:54;;;;;;;;;;;16.20;99.90;16.40;99007.00;;;;336137;28;86151;-88
2021/10/31 00:05:06;;;;;;;;;;;16.20;99.90;16.50;99003.00;;;;336463;28;87637;-89
2021/10/31 00:05:18;;;;;;;;;;;16.20;99.90;16.50;98997.00;;;;334830;28;86928;-89
2021/10/31 00:05:30;;;;;;;;;;;16.20;99.90;16.40;98991.00;;;;337794;28;89248;-89
2021/10/31 00:05:42;;;;;;;;;;;16.20;99.90;16.40;99004.00;;;;337579;28;86794;-89
2021/10/31 00:05:54;;;;;;;;;;;16.20;99.90;16.40;99000.00;;;;337710;28;88845;-89
2021/10/31 00:06:05;;;;;;;;;;;16.20;99.90;16.40;98992.00;;;;337548;28;86920;-88
2021/10/31 00:06:17;;;;;;;;;;;16.20;99.90;16.40;98993.00;;;;337752;28;88691;-88
2021/10/31 00:06:29;;;;;;;;;;;16.20;99.90;16.40;98998.00;;;;336113;28;86028;-89
2021/10/31 00:06:41;;;;;;;;;;;16.20;99.90;16.50;98997.00;;;;337716;28;88824;-89
2021/10/31 00:06:52;;;;;;;;;;;16.20;99.90;16.50;99002.00;;;;340144;28;86311;-89
2021/10/31 00:07:05;;;;;;;;;;;16.20;99.90;16.40;98995.00;;;;336240;28;88880;-88
2021/10/31 00:07:17;;;;;;;;;;;16.20;99.90;16.30;98996.00;;;;337376;28;88369;-89
2021/10/31 00:07:28;;;;;;;;;;;16.20;99.90;16.30;99000.00;;;;338787;28;90884;-88
2021/10/31 00:07:40;;;;;;;;;;;16.20;99.90;16.40;98998.00;;;;337525;28;86727;-89
2021/10/31 00:07:52;;;;;;;;;;;16.20;99.90;16.40;98995.00;;;;337489;28;90142;-88
2021/10/31 00:08:04;;;;;;;;;;;16.20;99.90;16.40;98998.00;;;;336201;28;87071;-89
2021/10/31 00:08:15;;;;;;;;;;;16.20;99.90;16.40;98990.00;;;;338162;28;87617;-89
2021/10/31 00:08:27;;;;;;;;;;;16.20;99.90;16.30;98991.00;;;;338879;28;86837;-89
2021/10/31 00:08:39;;;;;;;;;;;16.20;99.90;16.30;98998.00;;;;340497;28;87138;-89
2021/10/31 00:08:51;;;;;;;;;;;16.20;99.90;16.20;98991.00;;;;338470;28;86274;-88
2021/10/31 00:09:06;;;;;;;;;;;16.20;99.90;16.20;98991.00;;;;339117;28;89921;-89
2021/10/31 00:09:18;;;;;;;;;;;16.20;99.90;16.30;98992.00;;;;337530;28;85981;-89
2021/10/31 00:09:30;;;;;;;;;;;16.20;99.90;16.40;98996.00;;;;340379;28;87798;-89
2021/10/31 00:09:42;;;;;;;;;;;16.20;99.90;16.30;98992.00;;;;337553;28;86997;-89
2021/10/31 00:09:54;;;;;;;;;;;16.20;99.90;16.30;98995.00;;;;333872;28;88830;-89
2021/10/31 00:10:06;;;;;;;;;;;16.20;99.90;16.40;98988.00;;;;336312;28;85981;-89
2021/10/31 00:10:20;;;;;;;;;;;16.20;99.90;16.40;98986.00;;;;337785;28;85890;-89
2021/10/31 00:10:31;;;;;;;;;;;16.20;99.90;16.40;98996.00;;;;333668;29;86822;-89
2021/10/31 00:10:44;;;;;;;;;;;16.20;99.90;16.40;98994.00;;;;336377;28;88415;-88
2021/10/31 00:10:57;;;;;;;;;;;16.10;99.90;16.30;98998.00;;;;336072;28;86891;-89
2021/10/31 00:11:10;;;;;;;;;;;16.20;99.90;16.50;98988.00;;;;335151;28;90251;-89
2021/10/31 00:11:22;;;;;;;;;;;16.10;99.90;16.40;98993.00;;;;337547;28;86904;-88
2021/10/31 00:11:34;;;;;;;;;;;16.10;99.90;16.40;98989.00;;;;340380;28;88073;-89
2021/10/31 00:11:46;;;;;;;;;;;16.10;99.90;16.20;98986.00;;;;340213;28;86026;-89
2021/10/31 00:12:00;;;;;;;;;;;16.10;99.90;16.30;98993.00;;;;338894;28;88529;-88
2021/10/31 00:12:12;;;;;;;;;;;16.10;99.90;16.40;98993.00;;;;338236;28;86920;-88
2021/10/31 00:12:23;;;;;;;;;;;16.10;99.90;16.50;98992.00;;;;335367;28;90108;-89
2021/10/31 00:12:35;;;;;;;;;;;16.10;99.90;16.50;98989.00;;;;341702;28;86814;-88
2021/10/31 00:12:47;;;;;;;;;;;16.10;99.90;16.40;98984.00;;;;336390;28;88106;-88
2021/10/31 00:12:59;;;;;;;;;;;16.10;99.90;16.40;98984.00;;;;336223;28;86239;-89
2021/10/31 00:13:12;;;;;;;;;;;16.10;99.90;16.40;98990.00;;;;336526;28;87914;-89
2021/10/31 00:13:24;;;;;;;;;;;16.10;99.90;16.20;98990.00;;;;338841;28;86817;-87
2021/10/31 00:13:36;;;;;;;;;;;16.10;99.90;16.20;98985.00;;;;336375;28;88124;-88
2021/10/31 00:13:48;;;;;;;;;;;16.10;99.90;16.30;98986.00;;;;337327;28;86846;-88
2021/10/31 00:14:00;;;;;;;;;;;16.10;99.90;16.30;98989.00;;;;339050;28;87830;-89
2021/10/31 00:14:11;;;;;;;;;;;16.10;99.90;16.20;98978.00;;;;336134;28;86864;-89
2021/10/31 00:14:23;;;;;;;;;;;16.10;99.90;16.20;98982.00;;;;337598;28;89001;-88
2021/10/31 00:14:35;;;;;;;;;;;16.10;99.90;16.30;98987.00;;;;336294;28;85863;-89
2021/10/31 00:14:47;;;;;;;;;;;16.10;99.90;16.20;98985.00;;;;339094;28;87982;-88
2021/10/31 00:14:59;;;;;;;;;;;16.10;99.90;16.20;98982.00;;;;338488;28;85451;-89
2021/10/31 00:15:11;;;;;;;;;;;16.10;99.90;16.20;98983.00;;;;340474;28;87271;-88
2021/10/31 00:15:23;;;;;;;;;;;16.10;99.90;16.30;98988.00;;;;337602;28;86926;-89
2021/10/31 00:15:34;;;;;;;;;;;16.10;99.90;16.30;98984.00;;;;334891;28;91460;-89
2021/10/31 00:15:46;;;;;;;;;;;16.10;99.90;16.30;98986.00;;;;336219;28;86045;-89
2021/10/31 00:15:58;;;;;;;;;;;16.10;99.90;16.20;98979.00;;;;337678;28;89165;-88
2021/10/31 00:16:10;;;;;;;;;;;16.10;99.90;16.20;98986.00;;;;338672;28;86968;-88
2021/10/31 00:16:22;;;;;;;;;;;16.10;99.90;16.20;98977.00;;;;335922;28;90978;-88
2021/10/31 00:16:34;;;;;;;;;;;16.10;99.90;16.30;98987.00;;;;338729;28;86988;-89
2021/10/31 00:16:45;;;;;;;;;;;16.10;99.90;16.20;98982.00;;;;337764;28;87413;-89
2021/10/31 00:17:00;;;;;;;;;;;16.10;99.90;16.20;98983.00;;;;337492;28;85847;-89
2021/10/31 00:17:12;;;;;;;;;;;16.00;99.90;16.20;98985.00;;;;339149;28;86860;-89
2021/10/31 00:17:24;;;;;;;;;;;16.00;99.90;16.00;98991.00;;;;340210;28;86892;-89
2021/10/31 00:17:36;;;;;;;;;;;16.00;99.90;16.10;98989.00;;;;336307;28;87611;-89
2021/10/31 00:17:48;;;;;;;;;;;16.00;99.90;16.00;98988.00;;;;336092;28;86941;-88
2021/10/31 00:18:00;;;;;;;;;;;16.00;99.90;15.90;98984.00;;;;336469;28;86361;-88
2021/10/31 00:18:11;;;;;;;;;;;16.00;99.90;16.10;98982.00;;;;338673;28;86734;-89
2021/10/31 00:18:23;;;;;;;;;;;16.00;99.90;16.20;98984.00;;;;338886;28;90327;-89
2021/10/31 00:18:35;;;;;;;;;;;16.00;99.90;16.20;98985.00;;;;340028;28;86068;-89
2021/10/31 00:18:47;;;;;;;;;;;16.00;99.90;16.20;98984.00;;;;337773;28;88712;-89
2021/10/31 00:18:58;;;;;;;;;;;16.00;99.90;16.10;98983.00;;;;338751;28;86029;-88
2021/10/31 00:19:11;;;;;;;;;;;16.00;99.90;16.10;98981.00;;;;337833;28;87584;-89
2021/10/31 00:19:23;;;;;;;;;;;16.00;99.90;16.10;98990.00;;;;338814;28;86800;-88
2021/10/31 00:19:35;;;;;;;;;;;16.00;99.90;16.20;98978.00;;;;336157;29;88020;-89
2021/10/31 00:19:47;;;;;;;;;;;16.00;99.90;16.20;98988.00;;;;337488;28;88136;-89
2021/10/31 00:19:59;;;;;;;;;;;16.00;99.90;16.20;98983.00;;;;337702;28;88931;-88
2021/10/31 00:20:11;;;;;;;;;;;16.00;99.90;16.20;98986.00;;;;336114;28;86707;-89
2021/10/31 00:20:23;;;;;;;;;;;16.00;99.90;16.10;98991.00;;;;336525;28;88602;-88
2021/10/31 00:20:34;;;;;;;;;;;16.00;99.90;16.10;98983.00;;;;338880;28;85991;-89
2021/10/31 00:20:46;;;;;;;;;;;16.00;99.90;16.10;98993.00;;;;336391;28;89069;-89
2021/10/31 00:20:58;;;;;;;;;;;16.00;99.90;16.10;98976.00;;;;337498;28;86099;-89
2021/10/31 00:21:10;;;;;;;;;;;15.90;99.90;16.10;98989.00;;;;336250;28;90398;-89
2021/10/31 00:21:23;;;;;;;;;;;15.90;99.90;16.00;98992.00;;;;335137;28;87011;-89
2021/10/31 00:21:35;;;;;;;;;;;15.90;99.90;16.10;98986.00;;;;336346;28;91171;-88
2021/10/31 00:21:47;;;;;;;;;;;15.90;99.90;16.10;98986.00;;;;337478;28;86860;-89
2021/10/31 00:21:59;;;;;;;;;;;15.90;99.90;16.10;98991.00;;;;337560;28;89769;-89
2021/10/31 00:22:11;;;;;;;;;;;15.90;99.90;16.20;98983.00;;;;337905;28;87276;-88
2021/10/31 00:22:22;;;;;;;;;;;15.90;99.90;16.10;98982.00;;;;336460;28;87105;-89
2021/10/31 00:22:34;;;;;;;;;;;15.90;99.90;16.10;98994.00;;;;334984;29;85980;-88
2021/10/31 00:22:47;;;;;;;;;;;15.90;99.90;16.00;98981.00;;;;333659;28;91016;-89
2021/10/31 00:22:59;;;;;;;;;;;15.90;99.90;16.10;98988.00;;;;334844;29;85485;-88
2021/10/31 00:23:11;;;;;;;;;;;15.90;99.90;16.10;98985.00;;;;337663;28;88718;-89
2021/10/31 00:23:26;;;;;;;;;;;15.90;99.90;16.00;98992.00;;;;336240;29;87393;-89
2021/10/31 00:23:38;;;;;;;;;;;15.90;99.90;16.00;98990.00;;;;335127;29;87126;-89
2021/10/31 00:23:50;;;;;;;;;;;15.90;99.90;16.10;98988.00;;;;338759;28;86861;-89
2021/10/31 00:24:01;;;;;;;;;;;15.90;99.90;16.00;98993.00;;;;343241;28;88790;-89
2021/10/31 00:24:13;;;;;;;;;;;15.90;99.90;16.00;98990.00;;;;341656;28;85889;-89
2021/10/31 00:24:25;;;;;;;;;;;15.90;99.90;16.00;98982.00;;;;334297;29;88983;-89
2021/10/31 00:24:37;;;;;;;;;;;15.90;99.90;15.90;98975.00;;;;341761;28;86710;-89
2021/10/31 00:24:49;;;;;;;;;;;15.90;99.90;15.90;98985.00;;;;336361;28;88770;-89
2021/10/31 00:25:01;;;;;;;;;;;15.90;99.90;15.90;98981.00;;;;337300;28;87173;-88
2021/10/31 00:25:13;;;;;;;;;;;15.90;99.90;15.80;98989.00;;;;336476;28;87179;-89
2021/10/31 00:25:25;;;;;;;;;;;15.90;99.90;15.80;98988.00;;;;337278;28;86828;-89
2021/10/31 00:25:36;;;;;;;;;;;15.90;99.90;15.80;98982.00;;;;336443;28;88415;-89
2021/10/31 00:25:48;;;;;;;;;;;15.90;99.90;15.90;98990.00;;;;334751;28;87010;-88
2021/10/31 00:26:00;;;;;;;;;;;15.80;99.90;16.10;98992.00;;;;336426;28;88658;-89
2021/10/31 00:26:12;;;;;;;;;;;15.90;99.90;16.00;98989.00;;;;337485;28;86094;-89
2021/10/31 00:26:23;;;;;;;;;;;15.80;99.90;16.00;98982.00;;;;336554;28;87285;-89
2021/10/31 00:26:35;;;;;;;;;;;15.80;99.90;16.00;98990.00;;;;337508;28;86766;-89
2021/10/31 00:26:47;;;;;;;;;;;15.90;99.90;15.90;98989.00;;;;337721;28;88366;-88
2021/10/31 00:26:59;;;;;;;;;;;15.90;99.90;15.80;98985.00;;;;336248;28;88106;-89
2021/10/31 00:27:11;;;;;;;;;;;15.80;99.90;15.90;98985.00;;;;337834;28;86743;-88
2021/10/31 00:27:23;;;;;;;;;;;15.80;99.90;15.90;98985.00;;;;337796;28;86963;-89
2021/10/31 00:27:34;;;;;;;;;;;15.80;99.90;16.00;98991.00;;;;336256;28;87831;-88
2021/10/31 00:27:46;;;;;;;;;;;15.80;99.90;16.00;98985.00;;;;333597;28;86915;-89
2021/10/31 00:27:58;;;;;;;;;;;15.80;99.90;16.10;98984.00;;;;339089;28;87051;-89
2021/10/31 00:28:10;;;;;;;;;;;15.80;99.90;16.00;98983.00;;;;337294;28;86891;-89
2021/10/31 00:28:22;;;;;;;;;;;15.90;99.90;15.90;98979.00;;;;337760;28;87014;-89
2021/10/31 00:28:34;;;;;;;;;;;15.80;99.90;16.00;98984.00;;;;336241;29;86745;-89
2021/10/31 00:28:46;;;;;;;;;;;15.80;99.90;16.00;98987.00;;;;339101;28;87791;-88
2021/10/31 00:28:58;;;;;;;;;;;15.80;99.90;15.90;98982.00;;;;337554;28;86169;-89
2021/10/31 00:29:09;;;;;;;;;;;15.80;99.90;15.90;98981.00;;;;336439;28;87903;-89
2021/10/31 00:29:21;;;;;;;;;;;15.80;99.90;16.00;98979.00;;;;334923;29;86719;-88
2021/10/31 00:29:33;;;;;;;;;;;15.80;99.90;16.00;98980.00;;;;340154;28;88530;-88
2021/10/31 00:29:45;;;;;;;;;;;15.80;99.90;16.00;98975.00;;;;338558;28;88095;-89
2021/10/31 00:29:56;;;;;;;;;;;15.80;99.90;16.00;98984.00;;;;335135;29;85858;-89
2021/10/31 00:30:09;;;;;;;;;;;15.80;99.90;16.00;98979.00;;;;336213;28;86680;-89
2021/10/31 00:30:20;;;;;;;;;;;15.80;99.90;16.00;98977.00;;;;339800;28;89744;-89
2021/10/31 00:30:32;;;;;;;;;;;15.80;99.90;15.90;98973.00;;;;336223;28;86879;-88
2021/10/31 00:30:44;;;;;;;;;;;15.80;99.90;16.00;98984.00;;;;336459;28;88644;-89
2021/10/31 00:30:56;;;;;;;;;;;15.80;99.90;16.00;98975.00;;;;334729;28;86664;-89
2021/10/31 00:31:10;;;;;;;;;;;15.80;99.90;16.00;98973.00;;;;337683;28;86432;-88
2021/10/31 00:31:22;;;;;;;;;;;15.80;99.90;16.00;98969.00;;;;340662;28;86944;-89
2021/10/31 00:31:33;;;;;;;;;;;15.80;99.90;15.80;98978.00;;;;337748;28;85916;-89
2021/10/31 00:31:45;;;;;;;;;;;15.80;99.90;15.80;98975.00;;;;336180;29;86697;-89
2021/10/31 00:31:57;;;;;;;;;;;15.80;99.90;15.80;98981.00;;;;339101;28;87639;-89
2021/10/31 00:32:09;;;;;;;;;;;15.80;99.90;15.90;98979.00;;;;337415;28;87317;-89
2021/10/31 00:32:20;;;;;;;;;;;15.80;99.90;15.90;98975.00;;;;336479;28;89696;-89
2021/10/31 00:32:33;;;;;;;;;;;15.80;99.90;15.90;98977.00;;;;338806;28;86710;-89
2021/10/31 00:32:44;;;;;;;;;;;15.80;99.90;15.90;98973.00;;;;338895;28;90176;-89
2021/10/31 00:32:56;;;;;;;;;;;15.80;99.90;16.00;98984.00;;;;336096;28;86916;-89
2021/10/31 00:33:08;;;;;;;;;;;15.80;99.90;15.90;98974.00;;;;337587;28;88856;-88
2021/10/31 00:33:20;;;;;;;;;;;15.80;99.90;15.80;98981.00;;;;337201;28;86917;-89
2021/10/31 00:33:32;;;;;;;;;;;15.80;99.90;15.90;98975.00;;;;334892;28;89606;-89
2021/10/31 00:33:43;;;;;;;;;;;15.80;99.90;15.80;98976.00;;;;337507;28;86706;-89
2021/10/31 00:33:55;;;;;;;;;;;15.80;99.90;15.80;98977.00;;;;337755;28;88445;-89
2021/10/31 00:34:07;;;;;;;;;;;15.80;99.90;15.60;98978.00;;;;336062;28;86508;-88
2021/10/31 00:34:19;;;;;;;;;;;15.70;99.90;15.80;98976.00;;;;336508;28;88176;-89
2021/10/31 00:34:31;;;;;;;;;;;15.70;99.90;15.70;98974.00;;;;336160;28;86771;-89
2021/10/31 00:34:42;;;;;;;;;;;15.70;99.90;15.70;98985.00;;;;343282;28;90415;-89
2021/10/31 00:34:55;;;;;;;;;;;15.70;99.90;15.70;98979.00;;;;344317;28;87994;-89
2021/10/31 00:35:07;;;;;;;;;;;15.70;99.90;15.80;98980.00;;;;337736;28;89361;-88
2021/10/31 00:35:19;;;;;;;;;;;15.70;99.90;15.80;98982.00;;;;335890;28;88298;-88
2021/10/31 00:35:30;;;;;;;;;;;15.70;99.90;15.80;98987.00;;;;337507;28;90999;-89
2021/10/31 00:35:42;;;;;;;;;;;15.70;99.90;15.80;98972.00;;;;337487;28;86879;-89
2021/10/31 00:35:54;;;;;;;;;;;15.70;99.90;15.80;98980.00;;;;337505;28;91067;-89
2021/10/31 00:36:06;;;;;;;;;;;15.70;99.90;15.90;98977.00;;;;337428;28;86876;-89
2021/10/31 00:36:18;;;;;;;;;;;15.70;99.90;15.90;98978.00;;;;336355;28;88632;-88
2021/10/31 00:36:31;;;;;;;;;;;15.70;99.90;15.80;98971.00;;;;337047;28;86960;-89
2021/10/31 00:36:43;;;;;;;;;;;15.70;99.90;15.80;98980.00;;;;337198;28;90601;-88
2021/10/31 00:36:55;;;;;;;;;;;15.70;99.90;15.80;98962.00;;;;338721;28;85354;-89
2021/10/31 00:37:07;;;;;;;;;;;15.70;99.90;15.80;98969.00;;;;337710;28;86403;-89
2021/10/31 00:37:18;;;;;;;;;;;15.70;99.90;15.80;98985.00;;;;334887;29;86850;-89
2021/10/31 00:37:30;;;;;;;;;;;15.70;99.90;15.80;98972.00;;;;337182;28;88969;-89
2021/10/31 00:37:42;;;;;;;;;;;15.70;99.90;15.90;98974.00;;;;336192;29;86830;-88
2021/10/31 00:37:53;;;;;;;;;;;15.70;99.90;16.00;98973.00;;;;337700;28;88821;-89
2021/10/31 00:38:05;;;;;;;;;;;15.70;99.90;15.90;98978.00;;;;338630;28;86088;-89
2021/10/31 00:38:17;;;;;;;;;;;15.70;99.90;15.80;98981.00;;;;336225;28;90951;-87
2021/10/31 00:38:29;;;;;;;;;;;15.70;99.90;15.80;98977.00;;;;336086;29;87221;-89
2021/10/31 00:38:41;;;;;;;;;;;15.70;99.90;15.70;98975.00;;;;337702;28;88912;-89
2021/10/31 00:38:52;;;;;;;;;;;15.70;99.90;15.70;98985.00;;;;334753;29;86160;-88
2021/10/31 00:39:04;;;;;;;;;;;15.60;99.90;15.60;98970.00;;;;337734;28;86744;-89
2021/10/31 00:39:16;;;;;;;;;;;15.70;99.90;15.70;98977.00;;;;338102;28;86197;-88
2021/10/31 00:39:29;;;;;;;;;;;15.70;99.90;15.80;98984.00;;;;335563;28;88760;-88
2021/10/31 00:39:41;;;;;;;;;;;15.70;99.90;15.80;98975.00;;;;337467;28;86820;-88
2021/10/31 00:39:53;;;;;;;;;;;15.70;99.90;15.80;98978.00;;;;334976;29;88671;-88
2021/10/31 00:40:05;;;;;;;;;;;15.70;99.90;15.90;98977.00;;;;338695;28;86158;-89
2021/10/31 00:40:17;;;;;;;;;;;15.60;99.90;15.80;98978.00;;;;336876;28;86367;-89
2021/10/31 00:40:29;;;;;;;;;;;15.70;99.90;15.70;98978.00;;;;337452;28;86833;-89
2021/10/31 00:40:41;;;;;;;;;;;15.70;99.90;15.80;98977.00;;;;337701;28;89618;-89
2021/10/31 00:40:53;;;;;;;;;;;15.60;99.90;15.70;98975.00;;;;336198;28;85183;-89
2021/10/31 00:41:05;;;;;;;;;;;15.60;99.90;15.70;98977.00;;;;333682;29;88144;-88
2021/10/31 00:41:17;;;;;;;;;;;15.60;99.90;15.70;98978.00;;;;336215;29;86956;-88
2021/10/31 00:41:28;;;;;;;;;;;15.70;99.90;15.70;98967.00;;;;336526;28;86911;-88
2021/10/31 00:41:40;;;;;;;;;;;15.70;99.90;15.70;98978.00;;;;337473;28;87074;-89
2021/10/31 00:41:53;;;;;;;;;;;15.60;99.90;15.60;98974.00;;;;336463;28;87087;-89
2021/10/31 00:42:04;;;;;;;;;;;15.60;99.90;15.70;98983.00;;;;333660;29;86511;-89
2021/10/31 00:42:16;;;;;;;;;;;15.60;99.90;15.70;98975.00;;;;336084;28;87719;-88
2021/10/31 00:42:28;;;;;;;;;;;15.60;99.90;15.70;98975.00;;;;336516;28;88109;-87
2021/10/31 00:42:41;;;;;;;;;;;15.60;99.90;15.70;98976.00;;;;336499;28;88493;-89
2021/10/31 00:42:52;;;;;;;;;;;15.60;99.90;15.80;98985.00;;;;334960;28;85808;-88
2021/10/31 00:43:04;;;;;;;;;;;15.60;99.90;15.80;98978.00;;;;338831;28;90164;-88
2021/10/31 00:43:16;;;;;;;;;;;15.60;99.90;15.80;98975.00;;;;338764;28;87004;-88
2021/10/31 00:43:28;;;;;;;;;;;15.60;99.90;15.80;98975.00;;;;336371;29;87259;-88
2021/10/31 00:43:41;;;;;;;;;;;15.60;99.90;15.80;98972.00;;;;338794;28;85975;-89
2021/10/31 00:43:53;;;;;;;;;;;15.60;99.90;15.70;98981.00;;;;337617;28;88605;-88
2021/10/31 00:44:05;;;;;;;;;;;15.60;99.90;15.80;98979.00;;;;337528;28;86752;-88
2021/10/31 00:44:17;;;;;;;;;;;15.60;99.90;15.90;98980.00;;;;337700;28;87559;-88
2021/10/31 00:44:29;;;;;;;;;;;15.60;99.90;15.80;98978.00;;;;334897;29;86801;-88
2021/10/31 00:44:40;;;;;;;;;;;15.60;99.90;15.70;98975.00;;;;336459;28;87325;-88
2021/10/31 00:44:52;;;;;;;;;;;15.60;99.90;15.80;98984.00;;;;337170;28;86800;-88
2021/10/31 00:45:05;;;;;;;;;;;15.60;99.90;15.90;98979.00;;;;339030;28;88087;-89
2021/10/31 00:45:17;;;;;;;;;;;15.60;99.90;15.80;98982.00;;;;334875;29;86920;-88
2021/10/31 00:45:29;;;;;;;;;;;15.60;99.90;15.90;98982.00;;;;337501;28;86958;-88
2021/10/31 00:45:41;;;;;;;;;;;15.60;99.90;15.90;98975.00;;;;337465;28;86811;-88
2021/10/31 00:45:53;;;;;;;;;;;15.70;99.90;15.90;98976.00;;;;336137;28;90662;-89
2021/10/31 00:46:05;;;;;;;;;;;15.70;99.90;16.00;98980.00;;;;333528;29;86929;-88
2021/10/31 00:46:18;;;;;;;;;;;15.70;99.90;15.90;98977.00;;;;335045;29;88942;-88
2021/10/31 00:46:30;;;;;;;;;;;15.60;99.90;15.80;98989.00;;;;335746;28;86987;-88
2021/10/31 00:46:42;;;;;;;;;;;15.60;99.90;15.80;98987.00;;;;339004;28;87194;-89
2021/10/31 00:46:54;;;;;;;;;;;15.70;99.90;15.80;98986.00;;;;336092;28;86103;-89
2021/10/31 00:47:06;;;;;;;;;;;15.60;99.90;15.70;98986.00;;;;337799;28;86469;-89
2021/10/31 00:47:17;;;;;;;;;;;15.60;99.90;15.80;98974.00;;;;338774;28;86629;-88
2021/10/31 00:47:29;;;;;;;;;;;15.60;99.90;15.90;98976.00;;;;336290;28;88051;-89
2021/10/31 00:47:41;;;;;;;;;;;15.60;99.90;15.90;98981.00;;;;338861;28;86212;-88
2021/10/31 00:47:54;;;;;;;;;;;15.70;99.90;15.80;98974.00;;;;337589;28;89147;-88
2021/10/31 00:48:06;;;;;;;;;;;15.70;99.90;15.90;98977.00;;;;338588;28;88481;-89
2021/10/31 00:48:18;;;;;;;;;;;15.70;99.90;15.80;98982.00;;;;337632;28;88619;-89
2021/10/31 00:48:29;;;;;;;;;;;15.60;99.90;15.80;98979.00;;;;338699;28;87383;-89
2021/10/31 00:48:41;;;;;;;;;;;15.70;99.90;15.80;98973.00;;;;338911;28;89769;-89
2021/10/31 00:48:54;;;;;;;;;;;15.70;99.90;15.80;98974.00;;;;337412;28;86206;-88
2021/10/31 00:49:06;;;;;;;;;;;15.60;99.90;15.70;98976.00;;;;338830;28;87063;-88
2021/10/31 00:49:18;;;;;;;;;;;15.70;99.90;15.70;98984.00;;;;337261;28;87667;-88
2021/10/31 00:49:30;;;;;;;;;;;15.60;99.90;15.60;98981.00;;;;335724;29;88037;-89
2021/10/31 00:49:41;;;;;;;;;;;15.70;99.90;15.60;98979.00;;;;337381;28;86234;-89
2021/10/31 00:49:53;;;;;;;;;;;15.60;99.90;15.60;98978.00;;;;336443;28;87039;-88
2021/10/31 00:50:06;;;;;;;;;;;15.60;99.90;15.60;98977.00;;;;336229;28;85920;-88
2021/10/31 00:50:18;;;;;;;;;;;15.60;99.90;15.60;98977.00;;;;337688;28;88507;-89
2021/10/31 00:50:30;;;;;;;;;;;15.50;99.90;15.50;98977.00;;;;337489;28;86877;-89
2021/10/31 00:50:42;;;;;;;;;;;15.50;99.90;15.50;98972.00;;;;333772;29;88668;-89
2021/10/31 00:50:54;;;;;;;;;;;15.50;99.90;15.50;98973.00;;;;337381;28;86218;-89
2021/10/31 00:51:06;;;;;;;;;;;15.60;99.90;15.60;98974.00;;;;335145;29;87547;-89
2021/10/31 00:51:18;;;;;;;;;;;15.60;99.90;15.60;98974.00;;;;336185;28;86730;-88
2021/10/31 00:51:29;;;;;;;;;;;15.60;99.90;15.60;98982.00;;;;336281;28;88855;-88
2021/10/31 00:51:41;;;;;;;;;;;15.60;99.90;15.60;98978.00;;;;338749;28;86853;-88
2021/10/31 00:51:53;;;;;;;;;;;15.50;99.90;15.50;98976.00;;;;337376;28;91084;-88
2021/10/31 00:52:05;;;;;;;;;;;15.60;99.90;15.50;98977.00;;;;334772;28;87010;-88
2021/10/31 00:52:17;;;;;;;;;;;15.50;99.90;15.50;98979.00;;;;337380;28;88504;-88
2021/10/31 00:52:29;;;;;;;;;;;15.50;99.90;15.60;98973.00;;;;337246;28;88345;-88
2021/10/31 00:52:41;;;;;;;;;;;15.50;99.90;15.70;98977.00;;;;336333;28;89738;-88
2021/10/31 00:52:53;;;;;;;;;;;15.50;99.90;15.70;98979.00;;;;336092;29;86223;-88
2021/10/31 00:53:04;;;;;;;;;;;15.50;99.90;15.60;98979.00;;;;338893;28;90007;-89
2021/10/31 00:53:17;;;;;;;;;;;15.50;99.90;15.60;98979.00;;;;333606;28;86946;-88
2021/10/31 00:53:29;;;;;;;;;;;15.50;99.90;15.50;98979.00;;;;337672;28;87591;-88
2021/10/31 00:53:40;;;;;;;;;;;15.50;99.90;15.40;98980.00;;;;338730;28;86961;-88
2021/10/31 00:53:57;;;;;;;;;;;15.40;99.90;15.50;98978.00;;;;336387;28;89573;-89
2021/10/31 00:54:09;;;;;;;;;;;15.50;99.90;15.50;98977.00;;;;338812;28;86697;-89
2021/10/31 00:54:21;;;;;;;;;;;15.50;99.90;15.50;98979.00;;;;338779;28;87570;-88
2021/10/31 00:54:34;;;;;;;;;;;15.50;99.90;15.50;98979.00;;;;336204;28;86972;-89
2021/10/31 00:54:45;;;;;;;;;;;15.50;99.90;15.60;98976.00;;;;337637;28;89067;-88
2021/10/31 00:54:57;;;;;;;;;;;15.50;99.90;15.60;98975.00;;;;337520;28;86081;-89
2021/10/31 00:55:09;;;;;;;;;;;15.50;99.90;15.50;98978.00;;;;337801;28;87559;-89
2021/10/31 00:55:21;;;;;;;;;;;15.50;99.90;15.50;98979.00;;;;336046;29;86110;-88
2021/10/31 00:55:33;;;;;;;;;;;15.50;99.90;15.50;98974.00;;;;337580;28;88627;-88
2021/10/31 00:55:44;;;;;;;;;;;15.50;99.90;15.50;98974.00;;;;336215;29;85871;-88
2021/10/31 00:55:56;;;;;;;;;;;15.40;99.90;15.50;98982.00;;;;336397;29;87548;-89
2021/10/31 00:56:09;;;;;;;;;;;15.50;99.90;15.60;98971.00;;;;336229;28;86723;-88
2021/10/31 00:56:22;;;;;;;;;;;15.50;99.90;15.60;98976.00;;;;336266;28;90503;-88
2021/10/31 00:56:34;;;;;;;;;;;15.40;99.90;15.50;98983.00;;;;337243;28;87861;-88
2021/10/31 00:56:46;;;;;;;;;;;15.50;99.90;15.60;98981.00;;;;337780;28;89707;-88
2021/10/31 00:56:57;;;;;;;;;;;15.50;99.90;15.70;98984.00;;;;334964;29;86166;-88
2021/10/31 00:57:10;;;;;;;;;;;15.50;99.90;15.70;98974.00;;;;339060;28;87421;-89
2021/10/31 00:57:22;;;;;;;;;;;15.50;99.90;15.70;98979.00;;;;335991;28;87485;-88
2021/10/31 00:57:33;;;;;;;;;;;15.50;99.90;15.70;98979.00;;;;341673;28;87680;-89
2021/10/31 00:57:46;;;;;;;;;;;15.50;99.90;15.70;98984.00;;;;336219;29;86678;-89
2021/10/31 00:57:59;;;;;;;;;;;15.50;99.90;15.70;98975.00;;;;335047;28;89497;-88
2021/10/31 00:58:12;;;;;;;;;;;15.50;99.90;15.70;98975.00;;;;336235;28;85874;-88
2021/10/31 00:58:24;;;;;;;;;;;15.50;99.90;15.70;98980.00;;;;336371;28;87164;-88
2021/10/31 00:58:36;;;;;;;;;;;15.50;99.90;15.80;98977.00;;;;334900;29;87454;-89
2021/10/31 00:58:48;;;;;;;;;;;15.50;99.90;15.80;98973.00;;;;336379;29;88715;-88
2021/10/31 00:58:59;;;;;;;;;;;15.50;99.90;15.70;98969.00;;;;337346;28;87248;-89
2021/10/31 00:59:11;;;;;;;;;;;15.50;99.90;15.70;98969.00;;;;336279;28;89954;-89
2021/10/31 00:59:23;;;;;;;;;;;15.50;99.90;15.70;98968.00;;;;336257;29;86725;-89